Time;durP1;ratioP1;P1;durP2;ratioP2;P2;SDS_P1;SDS_P2;PMS_P1;PMS_P2;Temp;Humidity;BMP_temperature;BMP_pressure;BME280_temperature;BME280_humidity;BME280_pressure;Samples;Min_cycle;Max_cycle;Signal;HPM_P1;HPM_P2
2022/01/12 00:00:48;;;;;;;33.97;19.23;;;-0.80;99.90;;;;;;5054266;28;20620;-62
2022/01/12 00:03:13;;;;;;;35.87;20.87;;;-0.80;99.90;;;;;;5057430;28;20232;-61
2022/01/12 00:05:39;;;;;;;41.70;20.67;;;-0.70;99.90;;;;;;5066052;28;20234;-61
2022/01/12 00:08:05;;;;;;;35.80;19.63;;;-0.80;99.90;;;;;;5062913;28;20192;-61
2022/01/12 00:10:31;;;;;;;34.90;20.57;;;-0.80;99.90;;;;;;5054844;28;20215;-61
2022/01/12 00:12:56;;;;;;;32.80;20.23;;;-0.80;99.90;;;;;;5060698;28;20628;-61
2022/01/12 00:15:22;;;;;;;38.77;21.73;;;-0.80;99.90;;;;;;5047081;28;20211;-61
2022/01/12 00:17:47;;;;;;;37.40;20.43;;;-0.80;99.90;;;;;;5064301;28;20557;-61
2022/01/12 00:20:13;;;;;;;38.57;20.57;;;-0.90;99.90;;;;;;5053278;28;20199;-62
2022/01/12 00:22:40;;;;;;;35.20;19.93;;;-0.80;99.90;;;;;;5065290;28;20629;-61
2022/01/12 00:25:56;;;;;;;34.67;19.63;;;-0.70;99.90;;;;;;5051990;28;20245;-61
2022/01/12 00:33:27;;;;;;;37.33;20.27;;;-0.70;99.90;;;;;;5060111;28;20692;-61
2022/01/12 00:35:55;;;;;;;33.27;18.90;;;-0.70;99.90;;;;;;5049187;28;20450;-61
2022/01/12 00:38:25;;;;;;;37.50;19.30;;;-0.70;99.90;;;;;;5060644;28;20225;-61
2022/01/12 00:40:53;;;;;;;34.27;19.60;;;-0.80;99.90;;;;;;5057266;28;20554;-61
2022/01/12 00:43:21;;;;;;;36.27;20.83;;;-0.80;99.90;;;;;;5057323;28;20232;-61
2022/01/12 00:45:47;;;;;;;35.07;20.07;;;-0.60;99.90;;;;;;5065207;28;20173;-62
2022/01/12 00:48:17;;;;;;;34.50;19.67;;;-0.60;99.90;;;;;;5061215;28;20223;-61
2022/01/12 00:50:44;;;;;;;36.13;19.23;;;-0.60;99.90;;;;;;5045501;28;20247;-61
2022/01/12 00:53:10;;;;;;;38.00;20.47;;;-0.50;99.90;;;;;;5061469;28;20333;-62
2022/01/12 00:55:37;;;;;;;31.90;18.23;;;-0.70;99.90;;;;;;5055137;28;20704;-61
2022/01/12 00:58:03;;;;;;;34.73;18.80;;;-0.70;99.90;;;;;;5064070;28;20229;-62
2022/01/12 01:00:29;;;;;;;32.40;18.20;;;-0.70;99.90;;;;;;5059429;28;20212;-62
2022/01/12 01:02:56;;;;;;;32.80;19.37;;;-0.60;99.90;;;;;;5064230;28;20202;-61
2022/01/12 01:05:23;;;;;;;35.57;18.53;;;-0.60;99.90;;;;;;5051964;28;20303;-61
2022/01/12 01:07:50;;;;;;;32.47;19.57;;;-0.50;99.90;;;;;;5064541;28;20209;-62
2022/01/12 01:10:27;;;;;;;31.00;17.60;;;-0.50;99.90;;;;;;5051389;28;20212;-62
2022/01/12 01:12:53;;;;;;;32.03;17.93;;;-0.50;99.90;;;;;;5057283;28;20588;-61
2022/01/12 01:15:27;;;;;;;34.20;18.27;;;-0.60;99.90;;;;;;5058354;28;20931;-61
2022/01/12 01:26:10;;;;;;;31.43;18.03;;;-0.70;99.90;;;;;;5056611;28;20286;-61
2022/01/12 01:28:35;;;;;;;31.93;17.97;;;-0.50;99.90;;;;;;5055973;28;20324;-61
2022/01/12 01:31:02;;;;;;;31.20;17.60;;;-0.50;99.90;;;;;;5054062;28;20202;-61
2022/01/12 01:33:27;;;;;;;33.07;18.37;;;-0.60;99.90;;;;;;5059084;28;20227;-61
2022/01/12 01:35:56;;;;;;;38.57;19.87;;;-0.60;99.90;;;;;;5057150;28;20682;-61
2022/01/12 01:38:22;;;;;;;35.40;19.27;;;-0.60;99.90;;;;;;5058714;28;20216;-61
2022/01/12 01:40:47;;;;;;;39.93;19.40;;;-0.60;99.90;;;;;;5044401;28;20601;-61
2022/01/12 01:53:59;;;;;;;40.13;19.30;;;-0.50;99.90;;;;;;5042727;28;20211;-62
2022/01/12 01:56:25;;;;;;;43.37;21.30;;;-0.50;99.90;;;;;;5060518;28;20740;-62
2022/01/12 01:58:51;;;;;;;39.00;20.07;;;-0.50;99.90;;;;;;5062413;28;20294;-62
2022/01/12 02:01:17;;;;;;;43.60;21.07;;;-0.40;99.90;;;;;;5056464;28;20189;-62
2022/01/12 02:40:35;;;;;;;30.57;16.23;;;-0.50;99.90;;;;;;5045452;28;20208;-61
2022/01/12 02:43:12;;;;;;;31.30;15.97;;;-0.50;99.90;;;;;;5067437;28;20241;-60
2022/01/12 02:51:13;;;;;;;37.87;20.33;;;-0.40;99.90;;;;;;5047009;28;20232;-60
2022/01/12 02:53:41;;;;;;;34.17;16.63;;;-0.40;99.90;;;;;;5053706;28;20196;-60
2022/01/12 02:56:11;;;;;;;38.43;16.87;;;-0.50;99.90;;;;;;5051280;28;20279;-61
2022/01/12 02:58:37;;;;;;;37.90;18.33;;;-0.60;99.90;;;;;;5064569;28;20201;-61
2022/01/12 03:03:37;;;;;;;38.63;16.97;;;-0.50;99.90;;;;;;5060484;28;20192;-60
2022/01/12 03:06:06;;;;;;;31.80;18.07;;;-0.50;99.90;;;;;;5057530;28;20235;-60
2022/01/12 03:08:38;;;;;;;32.60;17.70;;;-0.40;99.90;;;;;;5065254;28;20253;-60
2022/01/12 03:11:09;;;;;;;38.93;17.97;;;-0.30;99.90;;;;;;5044637;28;20816;-60
2022/01/12 03:13:35;;;;;;;30.73;17.10;;;-0.30;99.90;;;;;;5046676;28;20187;-61
2022/01/12 03:16:10;;;;;;;37.63;20.00;;;-0.40;99.90;;;;;;5052068;28;20299;-61
2022/01/12 03:18:35;;;;;;;34.77;18.97;;;-0.30;99.90;;;;;;5052388;28;20922;-61
2022/01/12 03:21:01;;;;;;;37.10;18.27;;;-0.30;99.90;;;;;;5055577;28;20257;-62
2022/01/12 03:23:26;;;;;;;34.93;18.73;;;-0.40;99.90;;;;;;5057918;28;20219;-61
2022/01/12 03:25:52;;;;;;;38.40;20.37;;;-0.40;99.90;;;;;;5052769;28;20209;-61
2022/01/12 03:28:17;;;;;;;40.90;19.50;;;-0.30;99.90;;;;;;5065857;28;20225;-62
2022/01/12 03:30:52;;;;;;;36.37;19.13;;;-0.20;99.90;;;;;;5054556;28;20701;-64
2022/01/12 03:39:12;;;;;;;38.40;19.27;;;0.00;99.90;;;;;;5055158;28;20653;-62
2022/01/12 03:41:38;;;;;;;40.03;19.00;;;0.00;99.90;;;;;;5055631;28;20211;-62
2022/01/12 03:44:07;;;;;;;37.30;20.60;;;0.00;99.90;;;;;;5054543;28;20534;-61
2022/01/12 03:46:37;;;;;;;37.93;19.63;;;-0.10;99.90;;;;;;5053667;28;20197;-61
2022/01/12 03:49:04;;;;;;;36.13;19.63;;;-0.10;99.90;;;;;;5053303;28;20663;-62
2022/01/12 03:51:29;;;;;;;35.83;19.10;;;-0.10;99.90;;;;;;5054135;28;20302;-63
2022/01/12 03:53:55;;;;;;;36.30;21.20;;;-0.10;99.90;;;;;;5054483;28;20365;-62
2022/01/12 03:56:20;;;;;;;44.80;20.83;;;-0.10;99.90;;;;;;5056815;28;20207;-63
2022/01/12 03:58:46;;;;;;;40.53;20.77;;;-0.10;99.90;;;;;;5053833;28;20218;-61
2022/01/12 04:01:11;;;;;;;38.37;19.80;;;-0.20;99.90;;;;;;5055587;28;20697;-61
2022/01/12 04:03:41;;;;;;;44.27;20.67;;;-0.20;99.90;;;;;;5054576;28;20207;-61
2022/01/12 04:09:01;;;;;;;38.07;20.57;;;-0.20;99.90;;;;;;5056480;28;21128;-61
2022/01/12 04:11:27;;;;;;;37.27;19.60;;;-0.20;99.90;;;;;;5064690;28;20299;-62
2022/01/12 04:13:53;;;;;;;38.10;19.03;;;-0.20;99.90;;;;;;5051017;28;20558;-62
2022/01/12 04:16:18;;;;;;;44.33;20.20;;;-0.20;99.90;;;;;;5064610;28;20270;-61
2022/01/12 04:18:44;;;;;;;40.50;19.77;;;-0.20;99.90;;;;;;5049689;28;20392;-61
2022/01/12 04:21:11;;;;;;;42.40;21.13;;;-0.10;99.90;;;;;;5064459;28;20227;-61
2022/01/12 04:23:38;;;;;;;38.10;19.80;;;-0.10;99.90;;;;;;5051782;28;20262;-61
2022/01/12 04:26:11;;;;;;;36.77;19.73;;;-0.10;99.90;;;;;;5064447;28;20236;-62
2022/01/12 04:28:39;;;;;;;36.43;19.07;;;-0.10;99.90;;;;;;5044967;28;20212;-61
2022/01/12 04:31:05;;;;;;;47.27;21.23;;;-0.10;99.90;;;;;;5064636;28;20327;-61
2022/01/12 04:33:31;;;;;;;47.00;20.87;;;-0.10;99.90;;;;;;5048427;28;20266;-61
2022/01/12 04:35:57;;;;;;;37.83;20.20;;;-0.20;99.90;;;;;;5055744;28;20221;-62
2022/01/12 04:38:25;;;;;;;42.13;18.90;;;-0.10;99.90;;;;;;5052759;28;20199;-61
2022/01/12 04:40:51;;;;;;;40.60;20.57;;;-0.10;99.90;;;;;;5064638;28;20207;-61
2022/01/12 04:43:19;;;;;;;47.83;20.30;;;-0.10;99.90;;;;;;5053211;28;20628;-61
2022/01/12 04:46:08;;;;;;;38.10;18.50;;;-0.20;99.90;;;;;;5064381;28;20204;-62
2022/01/12 04:48:48;;;;;;;40.10;20.23;;;-0.10;99.90;;;;;;5046856;28;20209;-62
2022/01/12 04:51:13;;;;;;;40.13;19.13;;;-0.10;99.90;;;;;;5055850;28;20212;-62
2022/01/12 04:53:39;;;;;;;42.70;20.33;;;-0.10;99.90;;;;;;5053345;28;20206;-62
2022/01/12 04:56:05;;;;;;;38.50;20.43;;;-0.10;99.90;;;;;;5058851;28;20200;-62
2022/01/12 04:58:30;;;;;;;40.77;20.23;;;-0.10;99.90;;;;;;5052302;28;20591;-62
2022/01/12 05:01:06;;;;;;;40.43;22.23;;;-0.10;99.90;;;;;;5064577;28;20232;-62
2022/01/12 05:13:57;;;;;;;39.73;20.73;;;0.00;99.90;;;;;;5052570;28;20207;-61
2022/01/12 05:16:24;;;;;;;41.03;22.30;;;0.00;99.90;;;;;;5063619;28;20283;-62
2022/01/12 05:18:52;;;;;;;59.93;22.47;;;0.00;99.90;;;;;;5050571;28;20212;-61
2022/01/12 05:21:20;;;;;;;41.57;22.00;;;0.10;99.90;;;;;;5063636;28;20622;-61
2022/01/12 05:23:46;;;;;;;41.50;21.30;;;0.00;99.90;;;;;;5052591;28;20200;-62
2022/01/12 05:26:11;;;;;;;48.03;21.13;;;0.00;99.90;;;;;;5064243;28;20202;-61
2022/01/12 05:28:38;;;;;;;41.03;20.30;;;0.00;99.90;;;;;;5056810;28;20565;-61
2022/01/12 05:31:07;;;;;;;45.30;20.93;;;0.10;99.90;;;;;;5064222;28;20559;-62
2022/01/12 05:33:33;;;;;;;42.00;20.60;;;0.10;99.90;;;;;;5046182;28;20212;-61
2022/01/12 05:36:01;;;;;;;40.70;20.43;;;0.20;99.90;;;;;;5067412;28;20277;-62
2022/01/12 05:38:27;;;;;;;51.77;21.00;;;0.10;99.90;;;;;;5056411;28;20254;-61
2022/01/12 05:40:57;;;;;;;46.13;22.77;;;0.10;99.90;;;;;;5068231;28;20567;-62
2022/01/12 05:43:28;;;;;;;45.40;23.30;;;0.10;99.90;;;;;;5052764;28;20210;-61
2022/01/12 05:46:00;;;;;;;39.80;20.50;;;0.20;99.90;;;;;;5064060;28;20651;-62
2022/01/12 05:51:09;;;;;;;46.37;21.90;;;0.20;99.90;;;;;;5058366;28;20277;-61
2022/01/12 05:53:35;;;;;;;43.60;22.13;;;0.10;99.90;;;;;;5052065;28;20204;-61
2022/01/12 05:56:00;;;;;;;37.87;18.53;;;0.10;99.90;;;;;;5067915;28;20612;-60
2022/01/12 05:58:27;;;;;;;40.77;18.40;;;0.10;99.90;;;;;;5065167;28;20204;-61
2022/01/12 06:00:53;;;;;;;44.00;19.57;;;0.10;99.90;;;;;;5067220;28;20265;-62
2022/01/12 06:03:18;;;;;;;40.97;20.07;;;0.10;99.90;;;;;;5056080;28;20208;-62
2022/01/12 06:05:44;;;;;;;39.53;20.37;;;0.10;99.90;;;;;;5067685;28;20439;-62
2022/01/12 06:08:09;;;;;;;40.00;20.87;;;0.10;99.90;;;;;;5058241;28;20205;-61
2022/01/12 06:10:35;;;;;;;42.30;20.43;;;0.20;99.90;;;;;;5067205;28;20209;-61
2022/01/12 06:13:00;;;;;;;39.63;19.47;;;0.00;99.90;;;;;;5060576;28;20304;-60
2022/01/12 06:15:26;;;;;;;43.20;20.63;;;0.00;99.90;;;;;;5062212;28;20196;-61
2022/01/12 06:17:51;;;;;;;35.17;18.27;;;0.10;99.90;;;;;;5064618;28;20673;-61
2022/01/12 06:20:17;;;;;;;38.33;18.77;;;0.10;99.90;;;;;;5067048;28;20198;-61
2022/01/12 06:22:42;;;;;;;31.57;17.33;;;0.10;99.90;;;;;;5065021;28;20721;-61
2022/01/12 06:25:13;;;;;;;33.03;18.40;;;0.10;99.90;;;;;;5067100;28;20645;-61
2022/01/12 06:27:48;;;;;;;37.97;18.70;;;0.00;99.90;;;;;;5064055;28;20314;-61
2022/01/12 06:32:53;;;;;;;36.30;17.50;;;0.00;99.90;;;;;;5045433;28;20293;-62
2022/01/12 06:35:19;;;;;;;32.37;17.93;;;0.10;99.90;;;;;;5066564;28;20208;-61
2022/01/12 06:37:45;;;;;;;38.57;18.33;;;0.10;99.90;;;;;;5061944;28;20293;-62
2022/01/12 06:40:13;;;;;;;36.03;17.43;;;0.10;99.90;;;;;;5066245;28;20188;-61
2022/01/12 06:42:38;;;;;;;38.73;17.97;;;0.10;99.90;;;;;;5065044;28;20241;-61
2022/01/12 06:45:05;;;;;;;37.00;17.77;;;0.10;99.90;;;;;;5065091;28;20201;-61
2022/01/12 06:47:30;;;;;;;38.03;17.93;;;0.00;99.90;;;;;;5057638;28;20219;-62
2022/01/12 06:49:56;;;;;;;35.13;16.67;;;0.00;99.90;;;;;;5063646;28;20186;-62
2022/01/12 06:52:21;;;;;;;34.97;17.83;;;-0.10;99.90;;;;;;5064285;28;20760;-61
2022/01/12 06:54:47;;;;;;;35.43;17.87;;;0.00;99.90;;;;;;5054091;28;20191;-62
2022/01/12 06:57:12;;;;;;;33.70;18.30;;;0.00;99.90;;;;;;5064440;28;20596;-60
2022/01/12 06:59:38;;;;;;;36.37;17.30;;;0.00;99.90;;;;;;5059908;28;20764;-67
2022/01/12 07:02:04;;;;;;;36.43;17.50;;;0.10;99.90;;;;;;5056355;28;20208;-64
2022/01/12 07:04:30;;;;;;;35.73;18.37;;;0.20;99.90;;;;;;5066469;28;20192;-65
2022/01/12 07:06:55;;;;;;;36.33;18.40;;;0.30;99.90;;;;;;5055965;28;20218;-64
2022/01/12 07:09:21;;;;;;;43.17;19.23;;;0.20;99.90;;;;;;5066386;28;20615;-64
2022/01/12 07:11:48;;;;;;;42.00;19.30;;;0.20;99.90;;;;;;5051037;28;20207;-65
2022/01/12 07:14:13;;;;;;;45.77;19.53;;;0.20;99.90;;;;;;5062958;28;20258;-64
2022/01/12 07:16:39;;;;;;;41.63;20.40;;;0.30;99.90;;;;;;5052580;28;20644;-64
2022/01/12 07:19:05;;;;;;;45.63;18.37;;;0.20;99.90;;;;;;5055652;28;20189;-65
2022/01/12 07:21:30;;;;;;;42.73;19.13;;;0.20;99.90;;;;;;5057825;28;20431;-70
2022/01/12 07:23:56;;;;;;;48.10;20.43;;;0.40;99.90;;;;;;5065502;28;20192;-70
2022/01/12 07:26:23;;;;;;;48.77;21.80;;;0.40;99.90;;;;;;5063952;28;20209;-67
2022/01/12 07:28:49;;;;;;;39.87;20.13;;;0.40;99.90;;;;;;5062755;28;20614;-66
2022/01/12 07:31:15;;;;;;;43.90;19.90;;;0.40;99.90;;;;;;5056314;28;20217;-65
2022/01/12 07:33:40;;;;;;;42.03;20.17;;;0.30;99.90;;;;;;5060240;28;20187;-65
2022/01/12 07:36:06;;;;;;;43.10;20.73;;;0.40;99.90;;;;;;5057257;28;20666;-66
2022/01/12 07:38:31;;;;;;;40.40;19.77;;;0.50;99.90;;;;;;5059882;28;20181;-65
2022/01/12 07:40:57;;;;;;;43.77;19.67;;;0.50;99.90;;;;;;5063202;28;20214;-68
2022/01/12 07:43:22;;;;;;;38.63;20.50;;;0.50;99.90;;;;;;5056791;28;20192;-66
2022/01/12 07:45:48;;;;;;;39.97;19.33;;;0.50;99.90;;;;;;5052286;28;20667;-65
2022/01/12 07:48:14;;;;;;;42.60;20.43;;;0.50;99.90;;;;;;5053266;28;20197;-65
2022/01/12 07:50:40;;;;;;;40.90;20.37;;;0.60;99.90;;;;;;5052926;28;20213;-68
2022/01/12 07:53:05;;;;;;;45.17;21.37;;;0.70;99.90;;;;;;5052418;28;20177;-65
2022/01/12 07:55:31;;;;;;;45.20;21.83;;;0.70;99.90;;;;;;5053557;28;20201;-65
2022/01/12 07:57:57;;;;;;;48.67;23.13;;;0.80;99.90;;;;;;5056485;28;20650;-64
2022/01/12 08:00:22;;;;;;;44.63;20.67;;;0.80;99.90;;;;;;5062628;28;20684;-65
2022/01/12 08:02:50;;;;;;;40.90;21.47;;;0.80;99.90;;;;;;5047760;28;20243;-61
2022/01/12 08:05:16;;;;;;;49.97;22.03;;;0.90;99.90;;;;;;5056419;28;20196;-61
2022/01/12 08:07:41;;;;;;;44.33;20.70;;;0.90;99.90;;;;;;5063050;28;20200;-60
2022/01/12 08:10:09;;;;;;;43.03;20.37;;;0.90;99.90;;;;;;5050763;28;20657;-62
2022/01/12 08:12:35;;;;;;;45.50;20.70;;;0.90;99.90;;;;;;5062364;28;20200;-62
2022/01/12 08:15:03;;;;;;;39.90;21.77;;;1.00;99.90;;;;;;5056610;28;20182;-61
2022/01/12 08:17:28;;;;;;;46.87;20.73;;;1.10;99.90;;;;;;5060633;28;20665;-61
2022/01/12 08:19:55;;;;;;;50.90;21.40;;;1.20;99.90;;;;;;5060950;28;20272;-61
2022/01/12 08:22:21;;;;;;;46.83;21.50;;;1.20;99.90;;;;;;5062167;28;20328;-65
2022/01/12 08:24:46;;;;;;;46.43;19.60;;;1.20;99.90;;;;;;5056049;28;20273;-65
2022/01/12 08:27:12;;;;;;;48.93;23.97;;;1.30;99.90;;;;;;5057380;28;20258;-66
2022/01/12 08:29:37;;;;;;;45.83;21.20;;;1.30;99.90;;;;;;5064746;28;20635;-65
2022/01/12 08:32:03;;;;;;;45.47;20.63;;;1.30;99.90;;;;;;5063315;28;20645;-65
2022/01/12 08:34:29;;;;;;;43.50;21.30;;;1.40;99.90;;;;;;5049291;28;20209;-65
2022/01/12 08:36:55;;;;;;;37.80;19.33;;;1.40;99.90;;;;;;5064283;28;20566;-67
2022/01/12 08:39:21;;;;;;;36.57;19.83;;;1.40;99.90;;;;;;5044562;28;20575;-66
2022/01/12 08:41:46;;;;;;;42.47;21.97;;;1.50;99.90;;;;;;5052917;28;20447;-65
2022/01/12 08:44:12;;;;;;;44.77;21.00;;;1.50;99.90;;;;;;5062466;28;20208;-64
2022/01/12 08:46:38;;;;;;;39.60;19.93;;;1.60;99.90;;;;;;5063798;28;20290;-64
2022/01/12 08:49:04;;;;;;;44.60;20.63;;;1.70;99.90;;;;;;5047790;28;20202;-65
2022/01/12 08:51:30;;;;;;;43.77;22.13;;;1.70;99.90;;;;;;5063629;28;20223;-69
2022/01/12 08:53:55;;;;;;;45.97;21.70;;;1.70;99.90;;;;;;5047756;28;20621;-66
2022/01/12 08:56:21;;;;;;;39.17;18.97;;;1.70;99.90;;;;;;5053600;28;20670;-64
2022/01/12 08:58:48;;;;;;;44.40;20.70;;;1.80;99.90;;;;;;5050480;28;20572;-64
2022/01/12 09:01:13;;;;;;;46.43;23.03;;;1.80;99.90;;;;;;5056501;28;20186;-64
2022/01/12 09:03:39;;;;;;;45.37;20.60;;;1.80;99.90;;;;;;5052313;28;20212;-65
2022/01/12 09:06:05;;;;;;;42.03;19.93;;;1.90;99.90;;;;;;5052383;28;20284;-65
2022/01/12 09:08:32;;;;;;;43.40;20.47;;;2.10;99.90;;;;;;5053031;28;20207;-66
2022/01/12 09:10:57;;;;;;;39.60;21.00;;;2.10;99.90;;;;;;5053823;28;20363;-66
2022/01/12 09:13:23;;;;;;;42.10;21.10;;;2.10;99.90;;;;;;5050584;28;20205;-67
2022/01/12 09:15:48;;;;;;;40.27;19.37;;;2.10;99.90;;;;;;5050686;28;20187;-66
2022/01/12 09:18:15;;;;;;;43.27;20.70;;;2.20;99.90;;;;;;5051225;28;20286;-65
2022/01/12 09:20:40;;;;;;;40.60;19.63;;;2.20;99.90;;;;;;5054899;28;20225;-64
2022/01/12 09:23:07;;;;;;;34.63;18.97;;;2.20;99.90;;;;;;5051070;28;20271;-65
2022/01/12 09:25:35;;;;;;;37.93;19.27;;;2.40;99.90;;;;;;5053759;28;20182;-66
2022/01/12 09:28:02;;;;;;;36.43;18.77;;;2.50;99.90;;;;;;5050413;28;20608;-66
2022/01/12 09:30:28;;;;;;;32.60;16.10;;;2.40;99.90;;;;;;5055844;28;20260;-66
2022/01/12 09:32:54;;;;;;;28.80;15.97;;;2.50;99.90;;;;;;5048853;28;20195;-69
2022/01/12 09:35:19;;;;;;;33.50;17.87;;;2.40;99.90;;;;;;5049859;28;20205;-67
2022/01/12 09:37:45;;;;;;;33.53;17.47;;;2.30;99.90;;;;;;5050676;28;20767;-66
2022/01/12 09:40:11;;;;;;;35.33;18.47;;;2.20;99.90;;;;;;5053495;28;20208;-67
2022/01/12 09:42:37;;;;;;;37.37;19.87;;;2.20;99.90;;;;;;5050267;28;20210;-69
2022/01/12 09:45:03;;;;;;;36.27;17.17;;;2.20;99.90;;;;;;5059154;28;20221;-65
2022/01/12 09:47:29;;;;;;;33.17;15.87;;;2.20;99.90;;;;;;5061572;28;20263;-66
2022/01/12 09:49:55;;;;;;;34.23;16.97;;;2.40;99.90;;;;;;5055341;28;20680;-66
2022/01/12 09:52:21;;;;;;;33.27;16.83;;;2.40;99.90;;;;;;5060630;28;20190;-66
2022/01/12 09:54:46;;;;;;;36.37;16.03;;;2.40;99.90;;;;;;5053155;28;20652;-73
2022/01/12 09:57:13;;;;;;;31.80;15.50;;;2.40;99.90;;;;;;5050334;28;20201;-66
2022/01/12 09:59:39;;;;;;;35.47;16.07;;;2.30;99.90;;;;;;5061649;28;20197;-66
2022/01/12 10:02:14;;;;;;;34.23;18.23;;;2.40;99.90;;;;;;5055181;28;20195;-65
2022/01/12 10:04:39;;;;;;;28.43;16.23;;;2.50;99.90;;;;;;5047918;28;20189;-67
2022/01/12 10:07:05;;;;;;;29.47;16.77;;;2.50;99.90;;;;;;5052684;28;20675;-66
2022/01/12 10:09:44;;;;;;;31.90;16.53;;;2.70;99.90;;;;;;5052442;28;20255;-66
2022/01/12 10:12:13;;;;;;;31.10;16.97;;;2.60;99.90;;;;;;5053068;28;20309;-66
2022/01/12 10:14:49;;;;;;;28.83;15.47;;;2.60;99.90;;;;;;5053236;28;20305;-66
2022/01/12 10:17:15;;;;;;;28.60;16.80;;;2.70;99.90;;;;;;5049920;28;20179;-65
2022/01/12 10:19:41;;;;;;;30.10;16.17;;;2.80;99.90;;;;;;5047019;28;20279;-65
2022/01/12 10:22:10;;;;;;;34.03;17.10;;;3.00;99.90;;;;;;5057953;28;20316;-66
2022/01/12 10:24:38;;;;;;;28.90;17.50;;;3.00;99.90;;;;;;5054162;28;20193;-66
2022/01/12 10:27:15;;;;;;;33.77;17.37;;;3.10;99.90;;;;;;5055959;28;20194;-67
2022/01/12 10:29:42;;;;;;;28.63;15.53;;;3.00;99.90;;;;;;5052442;28;20614;-67
2022/01/12 10:32:13;;;;;;;28.47;17.20;;;2.90;99.90;;;;;;5054607;28;20199;-68
2022/01/12 10:34:45;;;;;;;28.67;16.40;;;2.80;99.90;;;;;;5052846;28;20308;-70
2022/01/12 10:37:22;;;;;;;27.67;14.90;;;2.80;99.90;;;;;;5056853;28;20297;-66
2022/01/12 10:39:49;;;;;;;30.73;16.87;;;2.80;99.90;;;;;;5054899;28;20190;-67
2022/01/12 10:42:19;;;;;;;27.17;15.17;;;2.80;99.90;;;;;;5055867;28;20178;-69
2022/01/12 10:44:51;;;;;;;34.43;16.97;;;2.90;99.90;;;;;;5055633;28;20186;-66
2022/01/12 10:47:18;;;;;;;29.47;15.93;;;2.90;99.90;;;;;;5057185;28;20174;-66
2022/01/12 10:49:54;;;;;;;28.83;16.13;;;2.90;99.90;;;;;;5050727;28;20195;-67
2022/01/12 10:52:21;;;;;;;27.50;16.17;;;2.90;99.90;;;;;;5055535;28;20182;-67
2022/01/12 10:54:52;;;;;;;27.93;15.77;;;3.10;99.90;;;;;;5054925;28;20281;-66
2022/01/12 10:57:19;;;;;;;29.53;15.60;;;3.10;99.90;;;;;;5053727;28;20187;-67
2022/01/12 11:00:06;;;;;;;27.27;15.80;;;3.10;99.90;;;;;;5052537;28;20202;-70
2022/01/12 11:02:32;;;;;;;24.77;14.37;;;2.90;99.90;;;;;;5062085;28;20277;-67
2022/01/12 11:04:59;;;;;;;30.87;16.80;;;2.90;99.90;;;;;;5063459;28;20201;-66
2022/01/12 11:07:26;;;;;;;30.87;17.20;;;2.90;99.90;;;;;;5061926;28;20248;-66
2022/01/12 11:09:55;;;;;;;31.30;15.67;;;2.90;99.90;;;;;;5063228;28;20256;-67
2022/01/12 11:12:20;;;;;;;32.77;16.43;;;2.90;99.90;;;;;;5054493;28;20256;-67
2022/01/12 11:14:46;;;;;;;29.13;15.77;;;3.00;99.90;;;;;;5057226;28;20199;-66
2022/01/12 11:17:11;;;;;;;29.03;16.17;;;3.00;99.90;;;;;;5057354;28;20609;-68
2022/01/12 11:19:40;;;;;;;26.63;15.93;;;2.90;99.90;;;;;;5063099;28;20301;-67
2022/01/12 11:22:33;;;;;;;32.07;17.80;;;2.90;99.90;;;;;;5058880;28;20268;-67
2022/01/12 11:24:59;;;;;;;27.13;15.70;;;2.90;99.90;;;;;;5056497;28;20665;-67
2022/01/12 11:27:24;;;;;;;31.30;16.97;;;3.00;99.90;;;;;;5058558;28;20239;-68
2022/01/12 11:29:50;;;;;;;31.57;16.27;;;3.00;99.90;;;;;;5061953;28;20641;-67
2022/01/12 11:32:22;;;;;;;33.40;15.17;;;3.00;99.90;;;;;;5057637;28;20221;-67
2022/01/12 11:35:04;;;;;;;30.03;16.77;;;3.00;99.90;;;;;;5062289;28;20186;-67
2022/01/12 11:37:29;;;;;;;31.20;16.87;;;3.00;99.90;;;;;;5056619;28;20221;-68
2022/01/12 11:40:09;;;;;;;33.43;17.40;;;3.10;99.90;;;;;;5059786;28;20238;-67
2022/01/12 11:42:37;;;;;;;30.50;17.83;;;3.00;99.90;;;;;;5058928;28;20192;-65
2022/01/12 11:45:04;;;;;;;28.50;16.97;;;3.00;99.90;;;;;;5061897;28;20194;-67
2022/01/12 11:47:31;;;;;;;29.17;16.73;;;3.10;99.90;;;;;;5056325;28;20191;-67
2022/01/12 11:49:57;;;;;;;34.00;17.90;;;3.10;99.90;;;;;;5062863;28;20683;-66
2022/01/12 11:52:26;;;;;;;35.33;18.10;;;3.10;99.90;;;;;;5061280;28;20178;-67
2022/01/12 11:55:01;;;;;;;31.17;17.43;;;3.10;99.90;;;;;;5062915;28;20199;-66
2022/01/12 11:57:35;;;;;;;40.17;19.80;;;3.10;99.90;;;;;;5053035;28;20186;-67
2022/01/12 12:00:13;;;;;;;46.83;20.93;;;3.10;99.90;;;;;;5058965;28;20189;-66
2022/01/12 12:02:44;;;;;;;36.13;19.10;;;3.10;99.90;;;;;;5055731;28;20201;-67
2022/01/12 12:05:12;;;;;;;41.37;20.40;;;3.00;99.90;;;;;;5053014;28;20281;-67
2022/01/12 12:07:52;;;;;;;41.03;18.77;;;3.10;99.90;;;;;;5055130;28;20228;-68
2022/01/12 12:10:23;;;;;;;38.93;19.03;;;3.00;99.90;;;;;;5056585;28;20220;-66
2022/01/12 12:12:51;;;;;;;40.73;22.57;;;3.10;99.90;;;;;;5044671;28;20579;-67
2022/01/12 12:15:16;;;;;;;40.33;19.80;;;3.10;99.90;;;;;;5060914;28;20607;-67
2022/01/12 12:17:42;;;;;;;41.33;20.23;;;3.10;99.90;;;;;;5054093;28;20243;-66
2022/01/12 12:20:14;;;;;;;47.17;21.73;;;3.10;99.90;;;;;;5058098;28;20209;-67
2022/01/12 12:22:42;;;;;;;38.60;20.43;;;3.10;99.90;;;;;;5054492;28;20230;-68
2022/01/12 12:25:19;;;;;;;45.07;21.30;;;3.10;99.90;;;;;;5053388;28;20723;-67
2022/01/12 12:27:49;;;;;;;43.57;22.63;;;3.10;99.90;;;;;;5055893;28;20181;-69
2022/01/12 12:30:17;;;;;;;50.23;23.17;;;3.10;99.90;;;;;;5050824;28;20213;-69
2022/01/12 12:32:46;;;;;;;47.60;23.03;;;3.10;99.90;;;;;;5054802;28;20213;-66
2022/01/12 12:35:18;;;;;;;41.33;20.83;;;3.10;99.90;;;;;;5049975;28;20203;-66
2022/01/12 12:37:51;;;;;;;46.90;22.13;;;3.10;99.90;;;;;;5053247;28;20182;-65
2022/01/12 12:40:22;;;;;;;55.83;24.70;;;3.10;99.90;;;;;;5047407;28;20201;-66
2022/01/12 12:42:58;;;;;;;47.63;21.70;;;3.20;99.90;;;;;;5050474;28;20179;-66
2022/01/12 12:45:35;;;;;;;56.83;24.40;;;3.10;99.90;;;;;;5049262;28;20724;-66
2022/01/12 12:48:06;;;;;;;49.07;22.53;;;3.10;99.90;;;;;;5052074;28;20182;-68
2022/01/12 12:50:32;;;;;;;50.60;24.17;;;3.10;99.90;;;;;;5049333;28;20300;-67
2022/01/12 12:52:58;;;;;;;51.50;25.07;;;3.10;99.90;;;;;;5054089;28;20201;-66
2022/01/12 12:55:24;;;;;;;53.73;23.27;;;3.20;99.90;;;;;;5049993;28;20206;-68
2022/01/12 12:57:54;;;;;;;43.77;22.03;;;3.20;99.90;;;;;;5056616;28;20186;-67
2022/01/12 13:00:22;;;;;;;49.17;24.50;;;3.20;99.90;;;;;;5061725;28;20202;-67
2022/01/12 13:02:51;;;;;;;52.97;24.53;;;3.20;99.90;;;;;;5056334;28;20191;-67
2022/01/12 13:05:20;;;;;;;51.23;23.20;;;3.10;99.90;;;;;;5061959;28;20321;-67
2022/01/12 13:07:47;;;;;;;50.57;22.53;;;3.10;99.90;;;;;;5046994;28;20880;-69
2022/01/12 13:10:16;;;;;;;49.70;23.53;;;3.10;99.90;;;;;;5055130;28;20206;-66
2022/01/12 13:12:45;;;;;;;53.33;23.80;;;3.10;99.90;;;;;;5053997;28;20170;-66
2022/01/12 13:15:18;;;;;;;52.70;24.63;;;3.10;99.90;;;;;;5049255;28;20210;-66
2022/01/12 13:17:43;;;;;;;57.97;25.97;;;3.20;99.90;;;;;;5053969;28;20202;-66
2022/01/12 13:22:46;;;;;;;59.60;24.13;;;3.20;99.90;;;;;;5061489;28;20480;-66
2022/01/12 13:25:15;;;;;;;55.20;24.57;;;3.20;99.90;;;;;;5059552;28;20336;-67
2022/01/12 13:27:41;;;;;;;63.23;26.43;;;3.30;99.90;;;;;;5062015;28;20185;-68
2022/01/12 13:30:09;;;;;;;60.43;25.63;;;3.30;99.90;;;;;;5060957;28;20205;-67
2022/01/12 13:32:37;;;;;;;59.67;26.63;;;3.30;99.90;;;;;;5054078;28;20186;-67
2022/01/12 13:35:10;;;;;;;62.50;26.43;;;3.40;99.90;;;;;;5057279;28;20282;-67
2022/01/12 13:37:39;;;;;;;54.00;25.53;;;3.40;99.90;;;;;;5055288;28;20193;-67
2022/01/12 13:40:12;;;;;;;50.70;25.63;;;3.40;99.90;;;;;;5061315;28;20213;-68
2022/01/12 13:42:54;;;;;;;61.53;26.77;;;3.40;99.90;;;;;;5054115;28;20187;-67
2022/01/12 13:45:30;;;;;;;58.20;26.70;;;3.40;99.90;;;;;;5051732;28;20194;-67
2022/01/12 13:47:59;;;;;;;67.07;27.57;;;3.40;99.90;;;;;;5052015;28;20273;-68
2022/01/12 13:50:31;;;;;;;69.30;28.93;;;3.40;99.90;;;;;;5061155;28;20214;-67
2022/01/12 13:52:57;;;;;;;50.60;25.80;;;3.40;99.90;;;;;;5046943;28;20175;-68
2022/01/12 13:55:23;;;;;;;57.97;28.27;;;3.40;99.90;;;;;;5063179;28;20194;-68
2022/01/12 13:58:04;;;;;;;71.77;29.03;;;3.40;99.90;;;;;;5055396;28;20190;-68
2022/01/12 14:00:30;;;;;;;61.57;27.60;;;3.40;99.90;;;;;;5055020;28;20221;-67
2022/01/12 14:02:56;;;;;;;58.37;27.27;;;3.40;99.90;;;;;;5063447;28;20239;-67
2022/01/12 14:05:37;;;;;;;59.13;27.50;;;3.40;99.90;;;;;;5057519;28;20214;-68
2022/01/12 14:08:11;;;;;;;59.13;26.90;;;3.40;99.90;;;;;;5064939;28;20190;-68
2022/01/12 14:10:36;;;;;;;65.83;27.50;;;3.40;99.90;;;;;;5054915;28;20248;-68
2022/01/12 14:13:02;;;;;;;67.20;27.80;;;3.40;99.90;;;;;;5066890;28;20467;-69